Portada
METAR-TAF:

METAR-TAF

Aeroports :

Saint Vincent, Saint Vincent

latitud: 13-09-23N, longitud: 061-09-01W, altitud: 41 m

Observació

L'informe es va fer fa 9 hores i 2 minuts, a les 22:00 UTC
Vent 12 kt del Est/Nord-Est, variant entre Nord/Nord-Est i Est
Temperatura 28°C
Humitat 79%
Pressió 1011 hPa
Visibilitat 10 km o més
Escasses núvols a una alçada de 1800 ft, Cumulonimbus.
Cel ennuvolat a una alçada de 1800 ft
tempesta

METAR: TVSA 262200Z 06012KT 030V100 9999 TS FEW018CB BKN018 28/24 Q1011 CB NE TEMPO SHRA

Hora: 03:02 (07:02 UTC)

Pronòstic

L'informe es va fer fa 2 hores i 2 minuts, a les 05:00 UTC
Pronòstic vàlid del 27 a les 06 UTC al 28 a les 06 UTC
Vent 10 kt del Est
Visibilitat 10 km o més
Cel ennuvolat a una alçada de 1600 ft
Cel ennuvolat a una alçada de 3600 ft
Temporalment
l' 27 a les 15 UTC al 27 a les 22 UTC
Visibilitat: 5000 m
Cel ennuvolat a una alçada de 1400 ft
xàfecs de pluja

TAF: TVSA 270500Z 2706/2806 08010KT 9999 BKN016 BKN036 TEMPO 2715/2722 5000 SHRA BKN014

Observacions i pronòstics meteorològics de més de 4000 aeroports (METAR i TAF).

Les estacions disponibles són els punts grocs i vermells al mapa.

Posi el ratolí al punt desitjat per veure el nom de l'estació.

Feu clic per veure les observacions i els pronòstics meteorològics.

Per canviar el mapa: feu clic els botons verds amb una creu de color negre per apropar; al botó verd amb un guió per allunyar la imatge; o en les fletxes verdes per a mapes adjacents.


METAR-TAF: